Tiempo atmosférico en la estación meteorológica de Anaga, Santa Cruz de Tenerife (19 m.)



Fecha
DESCASC
Temp. máxima en grados centígrados (hora)
DESCASC
Temp. mínima en grados centígrados (hora)
DESCASC
Temp. media en grados centígrados
DESCASC
Racha de viento máxima en m/sg (hora)
DESCASC
Velocidad máxima media en intervalos de 10 minutos(hora)
DESCASC
Precipitaciones diarias en mm
DESCASC
Precipitaciones de 00:00 a 06:00 en mm
DESCASC
Precipitaciones de 06:00 a 12:00 en mm
DESCASC
Precipitaciones de 12:00 a 18:00 en mm
DESCASC
Precipitaciones de 18:00 a 24:00 en mm
DESCASC
16-04-2019 22.3 (13:50) 16.9 (03:20) 19.6 7.5 (22:20) 3.06 (21:10) 0 0 0 0 0
15-04-2019 23.8 (16:20) 18.1 (06:10) 20.9 9.17 (15:00) 4.44 (16:10) 0 0 0 0 0
14-04-2019 23.7 (12:40) 14.7 (00:00) 19.2 7.22 (21:30) 3.89 (21:10) 0 0 0 0 0
13-04-2019 22.9 (15:20) 17.7 (00:00) 20.3 8.89 (14:00) 4.17 (17:20) 0 0 0 0 0
12-04-2019 21.9 (16:00) 17.2 (00:00) 19.6 10 (15:40) 5 (15:20) 0 0 0 0 0
11-04-2019 21.6 (15:30) 17.1 (00:00) 19.4 9.44 (15:30) 3.89 (16:40) 0 0 0 0 0
10-04-2019 21.9 (14:10) 17.2 (00:00) 19.6 10.28 (17:50) 3.89 (17:50) 0 0 0 0 0
09-04-2019 22.5 (17:00) 16.1 (00:00) 19.3 8.06 (15:50) 3.61 (15:50) 0.2 0 0.2 0 0
08-04-2019 22.6 (14:50) 15.4 (00:00) 19 7.78 (15:50) 4.17 (15:10) 0 0 0 0 0
07-04-2019 21.7 (14:20) 13.5 (00:00) 17.6 6.11 (18:10) 3.06 (12:40) 0 0 0 0 0
06-04-2019 20.7 (16:40) 15.7 (00:00) 18.2 10 (02:50) 4.17 (17:30) 0.8 0 0.6 0.2 0
05-04-2019 22.6 (15:20) 15.8 (00:00) 19.2 10.28 (22:30) 4.44 (19:50) 0.2 0 0 0.2 0
04-04-2019 20.9 (14:00) 16 (00:00) 18.4 9.17 (14:10) 4.17 (15:20) 1.2 0 0 0.2 1
03-04-2019 23 (16:20) 14 (08:10) 18.5 11.67 (17:00) 4.44 (18:30) 0 0 0 0 0
02-04-2019 20.9 (14:10) 15.1 (00:00) 18 6.67 (21:30) 3.33 (15:00) 6 6 0 0 0
01-04-2019 22 (13:30) 15 (00:00) 18.5 5.83 (16:40) 2.5 (13:40) 10.8 0 0 0.2 10.6
31-03-2019 20.8 (15:50) 13.8 (00:00) 17.3 7.22 (11:10) 3.89 (11:00) 0 0 0 0 0
30-03-2019 22.6 (14:00) 14 (00:00) 18.3 8.89 (11:20) 5 (11:20) 0 0 0 0 0
29-03-2019 22.5 (12:40) 15.3 (00:00) 18.9 5.28 (19:20) 2.78 (19:20) 0 0 0 0 0
28-03-2019 21.9 (14:10) 13.9 (00:00) 17.9 5 (13:00) 2.78 (11:10) 0 0 0 0 0
27-03-2019 21.9 (11:20) 17 (00:00) 19.4 7.5 (11:00) 3.89 (11:00) 0 0 0 0 0
26-03-2019 21.7 (14:20) 13.1 (00:00) 17.4 6.39 (23:40) 3.33 (10:40) 0 0 0 0 0
25-03-2019 20 (15:20) 15.3 (00:00) 17.7 8.33 (11:10) 2.78 (11:10) 3.6 0 1.4 2.2 0
24-03-2019 21.9 (13:30) 15.9 (00:00) 18.9 6.39 (13:50) 3.33 (13:20) 0 0 0 0 0
23-03-2019 21.4 (14:50) 16.9 (00:00) 19.1 11.39 (05:40) 4.72 (06:00) 0 0 0 0 0
22-03-2019 21.3 (14:30) 17 (00:00) 19.1 11.39 (17:10) 5 (14:40) 0 0 0 0 0
21-03-2019 22.4 (15:00) 16 (00:00) 19.2 11.11 (14:00) 3.89 (11:10) 0 0 0 0 0
20-03-2019 22.7 (15:10) 16.3 (00:00) 19.5 8.61 (09:20) 3.61 (18:00) 0 0 0 0 0
19-03-2019 20.9 (15:30) 17 (00:00) 18.9 9.17 (16:10) 3.89 (15:50) 0 0 0 0 0

Gráficas

Temp. máximas Temp. mínimas Temp. medias Precipitaciones Rachas de viento máximas Velocidades máximas media en intervalos de 10 minutos

Datos horarios

Fecha y hora oficial Temperatura (ºC) Velocidad del viento (km/h) Dirección del viento Racha (km/h) Dirección de racha Precipitación (mm) Presión (hPa) Tendencia (hPa) Humedad (%)
2019-04-17 23:00:00 18.9 4 Norte 19 Norte 0 -- -- 63
2019-04-17 22:00:00 18.8 5 Noroeste 21 Norte 0 -- -- 62
2019-04-17 21:00:00 19 12 Norte 35 Norte 0 -- -- 63
2019-04-17 20:00:00 19.3 12 Norte 31 Norte 0 -- -- 63
2019-04-17 19:00:00 20 7 Norte 24 Noroeste 0 -- -- 58
2019-04-17 18:00:00 19.9 11 Norte 27 Norte 0 -- -- 63
2019-04-17 17:00:00 21.2 12 Norte 24 Norte 0 -- -- 64
2019-04-17 16:00:00 21 11 Norte 24 Norte 0 -- -- 60
2019-04-17 15:00:00 20 4 Sur 15 Sudoeste 0 -- -- 76
2019-04-17 14:00:00 18.2 6 Sudoeste 15 Sudoeste 0.4 -- -- 85
2019-04-17 13:00:00 19.4 3 Sudoeste 15 Sur 0.2 -- -- 76
2019-04-17 12:00:00 20.4 8 Sudeste 17 Sur 0 -- -- 64
2019-04-17 11:00:00 20.9 8 Sudeste 20 Sudeste 0 -- -- 61
2019-04-17 10:00:00 20.2 6 Sudeste 14 Este 0 -- -- 64
2019-04-17 09:00:00 17.4 0 Calma 7 Norte 0 -- -- 68
2019-04-17 08:00:00 15.5 5 Norte 9 Norte 0 -- -- 71
2019-04-17 07:00:00 15.7 5 Norte 10 Norte 0 -- -- 70
2019-04-17 06:00:00 16.7 5 Norte 11 Nordeste 0 -- -- 68
2019-04-17 05:00:00 17.5 2 Noroeste 10 Norte 0 -- -- 64
2019-04-17 04:00:00 16.4 3 Norte 4 Norte 0 -- -- 72
2019-04-17 03:00:00 17.6 2 Norte 10 Norte 0 -- -- 69
2019-04-17 02:00:00 18.4 6 Norte 20 Norte 0 -- -- 66
2019-04-17 01:00:00 19 8 Norte 18 Norte 0 -- -- 66
2019-04-17 00:00:00 18.8 8 Norte 17 Nordeste 0 -- -- 67
2019-04-16 23:00:00 18.9 5 Norte 27 Noroeste 0 -- -- 68
2019-04-16 22:00:00 19.4 10 Norte 21 Nordeste 0 -- -- 68
2019-04-16 21:00:00 20.2 7 Norte 18 Norte 0 -- -- 69
2019-04-16 20:00:00 20.5 3 Sudoeste 12 Sur 0 -- -- 70
2019-04-16 19:00:00 20.5 6 Sudeste 13 Sur 0 -- -- 69
2019-04-16 18:00:00 21.4 7 Sur 15 Sur 0 -- -- 64
2019-04-16 17:00:00 22.1 8 Sur 17 Sur 0 -- -- 62
2019-04-16 16:00:00 21.4 7 Sur 14 Sur 0 -- -- 65
2019-04-16 15:00:00 21.2 6 Sur 15 Sur 0 -- -- 65
2019-04-16 14:00:00 22 8 Sur 14 Sur 0 -- -- 62
2019-04-16 13:00:00 21.5 6 Sur 12 Sur 0 -- -- 65
2019-04-16 12:00:00 20.6 7 Sur 17 Sudeste 0 -- -- 68
2019-04-16 11:00:00 21.8 9 Sudeste 19 Sur 0 -- -- 67
2019-04-16 10:00:00 20.5 8 Sudeste 18 Sudeste 0 -- -- 72
2019-04-16 09:00:00 18.1 0 Calma 5 Norte 0 -- -- 76
2019-04-16 08:00:00 17.3 3 Norte 10 Sudeste 0 -- -- 81
2019-04-16 07:00:00 18.4 5 Sur 14 Sur 0 -- -- 81
2019-04-16 06:00:00 18.7 5 Sur 11 Sudeste 0 -- -- 81
2019-04-16 05:00:00 18.6 5 Sur 14 Sur 0 -- -- 82
2019-04-16 04:00:00 17.5 3 Sur 8 Sur 0 -- -- 83
2019-04-16 03:00:00 17.1 4 Norte 7 Norte 0 -- -- 80
2019-04-16 02:00:00 17.8 0 Calma 6 Norte 0 -- -- 78
2019-04-16 01:00:00 17.8 4 Norte 7 Norte 0 -- -- 75
2019-04-16 00:00:00 18.5 0 Calma 5 Norte 0 -- -- 73
2019-04-15 23:00:00 19.3 2 Norte 11 Norte 0 -- -- 70
2019-04-15 22:00:00 19.7 3 Norte 10 Norte 0 -- -- 67
2019-04-15 21:00:00 20.2 4 Norte 10 Norte 0 -- -- 66
2019-04-15 20:00:00 21.2 4 Norte 16 Noroeste 0 -- -- 62
2019-04-15 19:00:00 21.9 5 Norte 24 Sudeste 0 -- -- 61
2019-04-15 18:00:00 22.8 8 Sur 23 Sudeste 0 -- -- 59
2019-04-15 17:00:00 23.1 5 Norte 30 Sur 0 -- -- 57
2019-04-15 16:00:00 22.8 13 Sur 32 Sudeste 0 -- -- 62
2019-04-15 15:00:00 22.4 12 Sudeste 33 Este 0 -- -- 62
2019-04-15 14:00:00 22.5 12 Sudeste 30 Sudeste 0 -- -- 58
2019-04-15 13:00:00 23.3 10 Sudeste 23 Sur 0 -- -- 53
2019-04-15 12:00:00 22.5 9 Norte 24 Noroeste 0 -- -- 55
2019-04-15 11:00:00 22.1 6 Norte 22 Noroeste 0 -- -- 56
2019-04-15 10:00:00 21.4 3 Noroeste 10 Norte 0 -- -- 56
2019-04-15 09:00:00 19.9 4 Norte 15 Noroeste 0 -- -- 60
2019-04-15 08:00:00 18.6 7 Norte 15 Nordeste 0 -- -- 64
2019-04-15 07:00:00 18.1 3 Noroeste 18 Norte 0 -- -- 65
2019-04-15 06:00:00 18.2 8 Norte 27 Norte 0 -- -- 68
2019-04-15 05:00:00 18.2 8 Norte 29 Nordeste 0 -- -- 67
2019-04-15 04:00:00 18.3 9 Norte 19 Norte 0 -- -- 65
2019-04-15 03:00:00 18.4 7 Norte 16 Norte 0 -- -- 65
2019-04-15 02:00:00 18.5 4 Norte 21 Norte 0 -- -- 66
2019-04-15 01:00:00 18.6 8 Norte 23 Norte 0 -- -- 66
2019-04-15 00:00:00 18.4 7 Norte 21 Nordeste 0 -- -- 69
2019-04-14 23:00:00 18.6 6 Norte 20 Norte 0 -- -- 68
2019-04-14 22:00:00 19 6 Norte 26 Norte 0 -- -- 66
2019-04-14 21:00:00 19.4 14 Norte 24 Norte 0 -- -- 64
2019-04-14 20:00:00 20.1 3 Sur 13 Sudeste 0 -- -- 71
2019-04-14 19:00:00 20.9 6 Sur 16 Este 0 -- -- 67
2019-04-14 18:00:00 22.1 6 Sudeste 22 Sur 0 -- -- 61
2019-04-14 17:00:00 22.3 6 Este 23 Este 0 -- -- 60
2019-04-14 16:00:00 23 8 Sudeste 23 Sudoeste 0 -- -- 56
2019-04-14 15:00:00 23.2 10 Sudoeste 22 Sur 0 -- -- 49
2019-04-14 14:00:00 22.9 9 Sudeste 21 Sur 0 -- -- 45
2019-04-14 13:00:00 23.5 11 Sur 19 Sur 0 -- -- 38
2019-04-14 12:00:00 23.3 5 Sudeste 14 Sudeste 0 -- -- 33
2019-04-14 11:00:00 21.8 5 Sudeste 13 Sudeste 0 -- -- 50
2019-04-14 10:00:00 19.9 6 Sur 13 Sudeste 0 -- -- 66
2019-04-14 09:00:00 16.1 4 Norte 9 Norte 0 -- -- 74
2019-04-14 08:00:00 14.8 5 Norte 9 Norte 0 -- -- 76
2019-04-14 07:00:00 15 5 Norte 9 Norte 0 -- -- 76
2019-04-14 06:00:00 16.7 0 Calma 16 Norte 0 -- -- 71
2019-04-14 05:00:00 17.2 3 Norte 19 Nordeste 0 -- -- 70
2019-04-14 04:00:00 17.5 6 Norte 16 Norte 0 -- -- 69
2019-04-14 03:00:00 17.7 8 Norte 24 Norte 0 -- -- 69
2019-04-14 02:00:00 17.8 9 Norte 22 Nordeste 0 -- -- 69
2019-04-14 01:00:00 18 9 Norte 24 Norte 0 -- -- 68
2019-04-14 00:00:00 18.1 9 Norte 22 Norte 0 -- -- 69
2019-04-13 23:00:00 18.3 8 Norte 25 Norte 0 -- -- 67
2019-04-13 22:00:00 18.4 6 Nordeste 14 Nordeste 0 -- -- 66
2019-04-13 21:00:00 18.8 6 Nordeste 21 Nordeste 0 -- -- 65
2019-04-13 20:00:00 19.5 11 Norte 26 Norte 0 -- -- 65
2019-04-13 19:00:00 20.5 13 Norte 27 Norte 0 -- -- 57
2019-04-13 18:00:00 22.1 15 Norte 28 Nordeste 0 -- -- 52
2019-04-13 17:00:00 22.9 11 Norte 30 Noroeste 0 -- -- 49
2019-04-13 16:00:00 22.8 13 Norte 30 Noroeste 0 -- -- 52
2019-04-13 15:00:00 22.4 11 Norte 29 Sur 0 -- -- 52
2019-04-13 14:00:00 22.6 8 Sudeste 32 Sur 0 -- -- 50
2019-04-13 13:00:00 21.6 9 Norte 29 Norte 0 -- -- 53
2019-04-13 12:00:00 20.6 10 Nordeste 27 Nordeste 0 -- -- 57
2019-04-13 11:00:00 20.4 11 Norte 28 Norte 0 -- -- 56
2019-04-13 10:00:00 19.5 10 Norte 24 Norte 0 -- -- 60
2019-04-13 09:00:00 18.7 5 Norte 18 Noroeste 0 -- -- 59
2019-04-13 08:00:00 17.9 5 Norte 20 Nordeste 0 -- -- 62
2019-04-13 07:00:00 17.9 8 Norte 21 Nordeste 0 -- -- 63
2019-04-13 06:00:00 18.1 12 Norte 24 Norte 0 -- -- 67
2019-04-13 05:00:00 18.1 8 Norte 28 Norte 0 -- -- 66
2019-04-13 04:00:00 18 6 Norte 26 Norte 0 -- -- 67
2019-04-13 03:00:00 18.2 7 Norte 22 Noroeste 0 -- -- 64
2019-04-13 02:00:00 18.3 7 Norte 24 Noroeste 0 -- -- 65
2019-04-13 01:00:00 18 5 Norte 22 Norte 0 -- -- 65
2019-04-13 00:00:00 17.7 5 Norte 23 Nordeste 0 -- -- 65
2019-04-12 23:00:00 17.7 10 Norte 29 Nordeste 0 -- -- 65
2019-04-12 22:00:00 17.7 7 Norte 26 Norte 0 -- -- 64
2019-04-12 21:00:00 17.9 10 Norte 24 Norte 0 -- -- 62
2019-04-12 20:00:00 18.1 8 Norte 26 Norte 0 -- -- 60
2019-04-12 19:00:00 18.8 10 Norte 36 Noroeste 0 -- -- 57
2019-04-12 18:00:00 20.4 12 Norte 28 Nordeste 0 -- -- 52
2019-04-12 17:00:00 21 12 Norte 34 Nordeste 0 -- -- 51
2019-04-12 16:00:00 21.9 12 Norte 36 Norte 0 -- -- 49
2019-04-12 15:00:00 21.4 15 Norte 33 Norte 0 -- -- 50
2019-04-12 14:00:00 21.3 13 Norte 33 Norte 0 -- -- 49
2019-04-12 13:00:00 20.7 10 Norte 32 Nordeste 0 -- -- 51
2019-04-12 12:00:00 20.1 11 Norte 28 Nordeste 0 -- -- 57
2019-04-12 11:00:00 19.4 7 Norte 28 Norte 0 -- -- 56
2019-04-12 10:00:00 19 11 Norte 30 Noroeste 0 -- -- 56
2019-04-12 09:00:00 18 8 Norte 26 Nordeste 0 -- -- 59
2019-04-12 08:00:00 17.4 7 Norte 25 Noroeste 0 -- -- 60
2019-04-12 07:00:00 17.6 10 Norte 31 Norte 0 -- -- 62
2019-04-12 06:00:00 17.8 7 Nordeste 36 Norte 0 -- -- 55
2019-04-12 05:00:00 17.2 6 Norte 31 Noroeste 0 -- -- 65
2019-04-12 04:00:00 17.5 10 Norte 26 Norte 0 -- -- 57
2019-04-12 03:00:00 17.5 9 Norte 29 Norte 0 -- -- 62
2019-04-12 02:00:00 17.4 9 Norte 23 Nordeste 0 -- -- 59
2019-04-12 01:00:00 17.6 9 Norte 27 Norte 0 -- -- 61
2019-04-12 00:00:00 17.6 8 Norte 20 Norte 0 -- -- 62
2019-04-11 23:00:00 17.9 6 Norte 21 Noroeste 0 -- -- 61
2019-04-11 22:00:00 18.1 8 Norte 29 Nordeste 0 -- -- 62
2019-04-11 21:00:00 18.2 5 Norte 30 Noroeste 0 -- -- 59
2019-04-11 20:00:00 18.3 10 Norte 27 Norte 0 -- -- 58
2019-04-11 19:00:00 18.8 8 Norte 25 Norte 0 -- -- 56
2019-04-11 18:00:00 19.6 12 Norte 30 Nordeste 0 -- -- 57
2019-04-11 17:00:00 20.3 13 Norte 33 Nordeste 0 -- -- 55
2019-04-11 16:00:00 20.8 11 Norte 34 Norte 0 -- -- 51
2019-04-11 15:00:00 21.3 9 Norte 29 Norte 0 -- -- 50
2019-04-11 14:00:00 20.9 10 Nordeste 32 Nordeste 0 -- -- 48
2019-04-11 13:00:00 20 11 Nordeste 31 Norte 0 -- -- 55
2019-04-11 12:00:00 20.1 11 Norte 33 Norte 0 -- -- 52
2019-04-11 11:00:00 19.2 12 Norte 31 Noroeste 0 -- -- 52
2019-04-11 10:00:00 18.4 8 Nordeste 30 Norte 0 -- -- 53
2019-04-11 09:00:00 17.6 8 Norte 27 Norte 0 -- -- 57
2019-04-11 08:00:00 17.2 11 Norte 27 Norte 0 -- -- 61
2019-04-11 07:00:00 17.2 10 Norte 24 Nordeste 0 -- -- 59
2019-04-11 06:00:00 17.2 8 Nordeste 27 Norte 0 -- -- 58
2019-04-11 05:00:00 17.5 9 Norte 25 Norte 0 -- -- 65
2019-04-11 04:00:00 17.1 3 Norte 23 Norte 0 -- -- 61
2019-04-11 03:00:00 17.4 8 Norte 27 Norte 0 -- -- 55
2019-04-11 02:00:00 17.5 7 Norte 22 Norte 0 -- -- 58
2019-04-11 01:00:00 17.6 6 Norte 24 Norte 0 -- -- 57
2019-04-11 00:00:00 17.4 5 Norte 26 Nordeste 0 -- -- 57
2019-04-10 23:00:00 17.8 9 Norte 23 Norte 0 -- -- 60
2019-04-10 22:00:00 18 6 Norte 25 Norte 0 -- -- 60
2019-04-10 21:00:00 18.1 10 Norte 29 Nordeste 0 -- -- 58
2019-04-10 20:00:00 18.5 6 Norte 25 Norte 0 -- -- 59
2019-04-10 19:00:00 19.1 7 Norte 29 Norte 0 -- -- 56
2019-04-10 18:00:00 19.7 7 Norte 37 Norte 0 -- -- 55
2019-04-10 17:00:00 21.6 9 Norte 32 Noroeste 0 -- -- 52
2019-04-10 16:00:00 21.8 10 Norte 30 Norte 0 -- -- 47
2019-04-10 15:00:00 21.1 9 Norte 26 Norte 0 -- -- 50
2019-04-10 14:00:00 21.8 11 Norte 27 Norte 0 -- -- 44
2019-04-10 13:00:00 20.7 10 Norte 28 Norte 0 -- -- 49
2019-04-10 12:00:00 20.5 10 Norte 26 Norte 0 -- -- 45
2019-04-10 11:00:00 19.8 11 Norte 28 Noroeste 0 -- -- 52
2019-04-10 10:00:00 19.5 8 Norte 21 Norte 0 -- -- 51
2019-04-10 09:00:00 17.8 5 Norte 26 Norte 0 -- -- 59
2019-04-10 08:00:00 17.2 5 Norte 21 Nordeste 0 -- -- 64
2019-04-10 07:00:00 17.4 7 Norte 18 Norte 0 -- -- 66
2019-04-10 06:00:00 17.4 8 Norte 21 Norte 0 -- -- 60
2019-04-10 05:00:00 17.6 4 Norte 16 Norte 0 -- -- 61
2019-04-10 04:00:00 17.6 6 Norte 21 Noroeste 0 -- -- 59
2019-04-10 03:00:00 17.6 6 Norte 18 Nordeste 0 -- -- 59
2019-04-10 02:00:00 17.8 6 Nordeste 23 Norte 0 -- -- 61
2019-04-10 01:00:00 17.9 7 Norte 18 Norte 0 -- -- 66
2019-04-10 00:00:00 17.9 8 Norte 22 Nordeste 0 -- -- 64
2019-04-09 23:00:00 17.9 7 Norte 21 Norte 0 -- -- 65
2019-04-09 22:00:00 18 10 Norte 22 Norte 0 -- -- 64
2019-04-09 21:00:00 17.9 4 Norte 22 Norte 0 -- -- 63
2019-04-09 20:00:00 18.4 6 Norte 23 Noroeste 0 -- -- 62
2019-04-09 19:00:00 19.2 9 Norte 24 Norte 0 -- -- 62
2019-04-09 18:00:00 20.7 10 Norte 22 Norte 0 -- -- 58
2019-04-09 17:00:00 22.5 8 Norte 22 Norte 0 -- -- 53
2019-04-09 16:00:00 20.7 8 Sudoeste 29 Sudeste 0 -- -- 59
2019-04-09 15:00:00 20.8 7 Norte 22 Norte 0 -- -- 58
2019-04-09 14:00:00 20.9 5 Norte 19 Norte 0 -- -- 58
2019-04-09 13:00:00 19.9 4 Noroeste 17 Nordeste 0 -- -- 69
2019-04-09 12:00:00 20 6 Norte 17 Norte 0.2 -- -- 68
2019-04-09 11:00:00 19.8 4 Norte 22 Norte 0 -- -- 71
2019-04-09 10:00:00 20.6 11 Norte 20 Norte 0 -- -- 62
2019-04-09 09:00:00 18.6 8 Norte 14 Norte 0 -- -- 69
2019-04-09 08:00:00 17 0 Calma 12 Norte 0 -- -- 75
2019-04-09 07:00:00 16.4 0 Calma 5 Noroeste 0 -- -- 75
2019-04-09 06:00:00 16.2 0 Calma 9 Noroeste 0 -- -- 73
2019-04-09 05:00:00 17 2 Norte 17 Nordeste 0 -- -- 71
2019-04-09 04:00:00 17.1 4 Norte 13 Norte 0 -- -- 70
2019-04-09 03:00:00 17.2 5 Norte 15 Nordeste 0 -- -- 69
2019-04-09 02:00:00 17.4 6 Norte 17 Norte 0 -- -- 65
2019-04-09 01:00:00 17.5 6 Norte 20 Norte 0 -- -- 64
2019-04-09 00:00:00 17.9 8 Norte 25 Norte 0 -- -- 62
2019-04-08 23:00:00 18 6 Norte 24 Nordeste 0 -- -- 59
2019-04-08 22:00:00 18.1 4 Norte 12 Norte 0 -- -- 59
2019-04-08 21:00:00 18.3 5 Norte 23 Norte 0 -- -- 57
2019-04-08 20:00:00 19 6 Norte 24 Noroeste 0 -- -- 54
2019-04-08 19:00:00 19.7 10 Norte 25 Norte 0 -- -- 54
2019-04-08 18:00:00 21.7 9 Norte 26 Norte 0 -- -- 48
2019-04-08 17:00:00 21.8 12 Norte 28 Noroeste 0 -- -- 48
2019-04-08 16:00:00 21.6 15 Norte 28 Norte 0 -- -- 49
2019-04-08 15:00:00 22.5 14 Norte 26 Norte 0 -- -- 49
2019-04-08 14:00:00 22.3 11 Norte 26 Norte 0 -- -- 51
2019-04-08 13:00:00 21.8 12 Norte 24 Noroeste 0 -- -- 51
2019-04-08 12:00:00 20.1 9 Norte 27 Nordeste 0 -- -- 59
2019-04-08 11:00:00 19.1 7 Norte 19 Norte 0 -- -- 63
2019-04-08 10:00:00 18.1 8 Norte 20 Noroeste 0 -- -- 66
2019-04-08 09:00:00 17 9 Norte 24 Norte 0 -- -- 70
2019-04-08 08:00:00 15.5 3 Norte 6 Noroeste 0 -- -- 73
2019-04-08 07:00:00 15.7 0 Calma 6 Norte 0 -- -- 76
2019-04-08 06:00:00 15.8 2 Norte 8 Norte 0 -- -- 78
2019-04-08 05:00:00 16.3 2 Norte 16 Norte 0 -- -- 77
2019-04-08 04:00:00 16.3 3 Norte 10 Norte 0 -- -- 80
2019-04-08 03:00:00 15.6 3 Norte 6 Norte 0 -- -- 76
2019-04-08 02:00:00 16.5 0 Calma 4 Oeste 0 -- -- 72
2019-04-08 01:00:00 17.5 0 Calma 14 Nordeste 0 -- -- 66
2019-04-08 00:00:00 18 3 Norte 9 Nordeste 0 -- -- 67
2019-04-07 23:00:00 17.9 0 Calma 9 Norte 0 -- -- 68
2019-04-07 22:00:00 18.1 4 Norte 13 Nordeste 0 -- -- 66
2019-04-07 21:00:00 18.3 5 Norte 18 Norte 0 -- -- 64
2019-04-07 20:00:00 19.2 8 Norte 17 Norte 0 -- -- 59
2019-04-07 19:00:00 19.7 8 Nordeste 22 Nordeste 0 -- -- 56
2019-04-07 18:00:00 20.2 9 Nordeste 21 Nordeste 0 -- -- 54
2019-04-07 17:00:00 20.3 7 Sur 13 Sur 0 -- -- 56
2019-04-07 16:00:00 20.8 8 Sur 19 Sur 0 -- -- 56
2019-04-07 15:00:00 20.6 9 Sudoeste 20 Sudeste 0 -- -- 55
2019-04-07 14:00:00 21.6 9 Sur 19 Sur 0 -- -- 53
2019-04-07 13:00:00 20.6 8 Sur 17 Sur 0 -- -- 56
2019-04-07 12:00:00 20.7 6 Sur 21 Nordeste 0 -- -- 55
2019-04-07 11:00:00 20.5 10 Norte 18 Nordeste 0 -- -- 55
2019-04-07 10:00:00 18.9 4 Noroeste 12 Nordeste 0 -- -- 60
2019-04-07 09:00:00 14.9 3 Norte 8 Norte 0 -- -- 77
2019-04-07 08:00:00 13.5 3 Norte 9 Norte 0 -- -- 81
2019-04-07 07:00:00 13.8 3 Norte 8 Nordeste 0 -- -- 79
2019-04-07 06:00:00 14.1 2 Norte 6 Norte 0 -- -- 78
2019-04-07 05:00:00 14.6 2 Norte 6 Norte 0 -- -- 76
2019-04-07 04:00:00 15.5 0 Calma 10 Norte 0 -- -- 72
2019-04-07 03:00:00 16.7 5 Norte 15 Norte 0 -- -- 66
2019-04-07 02:00:00 16.7 3 Norte 16 Nordeste 0 -- -- 67
2019-04-07 01:00:00 16.8 2 Norte 12 Nordeste 0 -- -- 66
2019-04-07 00:00:00 17.2 3 Norte 15 Nordeste 0 -- -- 62
2019-04-06 23:00:00 17.3 3 Norte 19 Norte 0 -- -- 62
2019-04-06 22:00:00 17.5 5 Nordeste 21 Norte 0 -- -- 63
2019-04-06 21:00:00 17.8 6 Norte 27 Norte 0 -- -- 62
2019-04-06 20:00:00 18.2 7 Norte 21 Norte 0 -- -- 60
2019-04-06 19:00:00 18.8 6 Norte 27 Norte 0 -- -- 56
2019-04-06 18:00:00 20 9 Norte 33 Noroeste 0 -- -- 52
2019-04-06 17:00:00 20.2 13 Norte 33 Noroeste 0 -- -- 50
2019-04-06 16:00:00 20.6 9 Norte 31 Norte 0 -- -- 48
2019-04-06 15:00:00 20 14 Norte 30 Noroeste 0 -- -- 52
2019-04-06 14:00:00 19.6 11 Norte 32 Norte 0 -- -- 53
2019-04-06 13:00:00 19.3 9 Norte 27 Norte 0.2 -- -- 54
2019-04-06 12:00:00 18.4 6 Norte 31 Norte 0 -- -- 58
2019-04-06 11:00:00 17.5 9 Norte 27 Nordeste 0 -- -- 62
2019-04-06 10:00:00 16.5 3 Noroeste 23 Norte 0.4 -- -- 71
2019-04-06 09:00:00 16.5 13 Norte 29 Norte 0.2 -- -- 71
2019-04-06 08:00:00 16.9 8 Norte 35 Noroeste 0 -- -- 62
2019-04-06 07:00:00 17.2 9 Norte 30 Noroeste 0 -- -- 55
2019-04-06 06:00:00 17.2 7 Norte 31 Noroeste 0 -- -- 60
2019-04-06 05:00:00 17.5 13 Norte 35 Norte 0 -- -- 56
2019-04-06 04:00:00 17.4 7 Norte 23 Oeste 0 -- -- 56
2019-04-06 03:00:00 17.5 10 Norte 36 Noroeste 0 -- -- 61
2019-04-06 02:00:00 17.6 7 Norte 31 Noroeste 0 -- -- 57
2019-04-06 01:00:00 17 5 Nordeste 27 Norte 0 -- -- 65
2019-04-06 00:00:00 17.6 9 Norte 28 Nordeste 0 -- -- 60
2019-04-05 23:00:00 17.7 11 Norte 37 Norte 0 -- -- 60
2019-04-05 22:00:00 17.7 13 Norte 35 Norte 0 -- -- 56
2019-04-05 21:00:00 17.5 10 Norte 33 Norte 0 -- -- 64
2019-04-05 20:00:00 18.2 14 Norte 35 Norte 0 -- -- 58
2019-04-05 19:00:00 18.6 13 Norte 33 Noroeste 0 -- -- 60
2019-04-05 18:00:00 19.1 10 Norte 32 Norte 0 -- -- 59
2019-04-05 17:00:00 19.3 13 Norte 37 Norte 0 -- -- 61
2019-04-05 16:00:00 18.9 12 Norte 35 Nordeste 0.2 -- -- 68
2019-04-05 15:00:00 22.4 13 Norte 29 Norte 0 -- -- 44
2019-04-05 14:00:00 22.1 7 Norte 33 Norte 0 -- -- 48
2019-04-05 13:00:00 21.3 5 Nordeste 29 Norte 0 -- -- 49
2019-04-05 12:00:00 19.9 10 Norte 36 Norte 0 -- -- 52
2019-04-05 11:00:00 19.2 4 Norte 13 Nordeste 0 -- -- 55
2019-04-05 10:00:00 17.9 3 Norte 9 Oeste 0 -- -- 60
2019-04-05 09:00:00 17.1 0 Calma 13 Norte 0 -- -- 63
2019-04-05 08:00:00 16.6 2 Noroeste 18 Norte 0 -- -- 67
2019-04-05 07:00:00 16.1 3 Norte 31 Norte 0 -- -- 69
2019-04-05 06:00:00 16 11 Norte 28 Noroeste 0 -- -- 70
2019-04-05 05:00:00 16.3 4 Norte 16 Noroeste 0 -- -- 63
2019-04-05 04:00:00 16.7 2 Noroeste 19 Nordeste 0 -- -- 67
2019-04-05 03:00:00 17 2 Norte 22 Norte -- -- -- 67
2019-04-05 02:00:00 17 4 Norte 21 Nordeste 0 -- -- 67
2019-04-05 01:00:00 16.6 5 Norte 20 Norte 0 -- -- 67
2019-04-05 00:00:00 16.2 5 Norte 25 Norte 0.4 -- -- 73
2019-04-04 23:00:00 17.2 9 Norte 19 Norte 0.4 -- -- 71
2019-04-04 22:00:00 17.6 4 Norte 19 Norte 0 -- -- 65
2019-04-04 21:00:00 17.5 6 Norte 23 Norte 0 -- -- 66
2019-04-04 20:00:00 17.6 4 Norte 23 Norte 0.2 -- -- 71
2019-04-04 19:00:00 18.8 5 Norte 20 Noroeste 0 -- -- 58
2019-04-04 18:00:00 19.1 12 Norte 22 Norte 0 -- -- 57
2019-04-04 17:00:00 19.7 9 Norte 31 Norte 0 -- -- 57
2019-04-04 16:00:00 20 10 Norte 30 Norte 0 -- -- 56
2019-04-04 15:00:00 20.2 9 Norte 33 Noroeste 0 -- -- 58
2019-04-04 14:00:00 20.9 11 Norte 31 Noroeste 0 -- -- 55
2019-04-04 13:00:00 18.8 10 Norte 29 Norte 0.2 -- -- 67
2019-04-04 12:00:00 19.7 8 Norte 29 Norte 0 -- -- 56
2019-04-04 11:00:00 18.9 12 Norte 25 Norte 0 -- -- 59
2019-04-04 10:00:00 17.5 6 Norte 26 Norte 0 -- -- 64
2019-04-04 09:00:00 16.8 6 Nordeste 16 Nordeste 0 -- -- 66
2019-04-04 08:00:00 16.3 7 Norte 23 Nordeste 0 -- -- 68
2019-04-04 07:00:00 16.1 7 Norte 20 Norte 0 -- -- 69
2019-04-04 06:00:00 16.2 10 Norte 21 Norte 0 -- -- 67
2019-04-04 05:00:00 16.6 7 Norte 22 Norte 0 -- -- 66
2019-04-04 04:00:00 17 9 Norte 22 Norte 0 -- -- 63
2019-04-04 03:00:00 17 10 Norte 19 Norte 0 -- -- 60
2019-04-04 02:00:00 17 9 Norte 17 Norte 0 -- -- 63
2019-04-04 01:00:00 17.5 8 Norte 15 Noroeste 0 -- -- 65
2019-04-04 00:00:00 17.9 6 Norte 21 Nordeste 0 -- -- 62
2019-04-03 23:00:00 17.9 10 Norte 30 Noroeste 0 -- -- 64
2019-04-03 22:00:00 18.1 12 Norte 28 Nordeste 0 -- -- 62
2019-04-03 21:00:00 18.4 9 Norte 28 Nordeste 0 -- -- 60
2019-04-03 20:00:00 18.8 9 Norte 30 Norte 0 -- -- 59
2019-04-03 19:00:00 19.9 7 Norte 34 Nordeste 0 -- -- 55
2019-04-03 18:00:00 21.7 15 Norte 33 Norte 0 -- -- 46
2019-04-03 17:00:00 22.1 15 Norte 42 Norte 0 -- -- 44
2019-04-03 16:00:00 22.6 9 Norte 28 Sudoeste 0 -- -- 42
2019-04-03 15:00:00 22.7 6 Norte 26 Noroeste 0 -- -- 42
2019-04-03 14:00:00 21.6 7 Norte 21 Nordeste 0 -- -- 45
2019-04-03 13:00:00 21.5 8 Norte 28 Norte 0 -- -- 48
2019-04-03 12:00:00 20.9 15 Norte 31 Norte 0 -- -- 50
2019-04-03 11:00:00 20 13 Norte 27 Norte 0 -- -- 51
2019-04-03 10:00:00 19.1 11 Norte 21 Norte 0 -- -- 58
2019-04-03 09:00:00 15.1 3 Norte 9 Noroeste 0 -- -- 77
2019-04-03 08:00:00 14.1 2 Norte 7 Norte 0 -- -- 81
2019-04-03 07:00:00 14.7 0 Calma 9 Norte 0 -- -- 79
2019-04-03 06:00:00 15.2 4 Norte 7 Norte 0 -- -- 78
2019-04-03 05:00:00 15.9 0 Calma 14 Norte 0 -- -- 77
2019-04-03 04:00:00 16.3 4 Norte 14 Norte 0 -- -- 77
2019-04-03 03:00:00 15.8 2 Norte 7 Norte 0 -- -- 78
2019-04-03 02:00:00 16.4 0 Calma 5 Este 0 -- -- 75
2019-04-03 01:00:00 17.2 0 Calma 17 Norte 0 -- -- 74
2019-04-03 00:00:00 17.2 5 Norte 15 Norte 0 -- -- 73
2019-04-02 23:00:00 17.1 5 Norte 18 Nordeste 0 -- -- 74
2019-04-02 22:00:00 17.3 8 Norte 24 Norte 0 -- -- 76
2019-04-02 21:00:00 17.3 6 Nordeste 22 Nordeste 0 -- -- 78
2019-04-02 20:00:00 18 8 Norte 22 Norte 0 -- -- 75
2019-04-02 19:00:00 18.3 11 Norte 21 Norte 0 -- -- 75
2019-04-02 18:00:00 19.9 5 Norte 15 Nordeste 0 -- -- 66
2019-04-02 17:00:00 20.1 7 Norte 16 Norte 0 -- -- 64
2019-04-02 16:00:00 19.7 6 Nordeste 19 Sur 0 -- -- 68
2019-04-02 15:00:00 20.6 12 Sur 20 Sudeste 0 -- -- 65
2019-04-02 14:00:00 20.7 7 Sur 13 Sur 0 -- -- 65
2019-04-02 13:00:00 19.1 0 Calma 7 Norte 0 -- -- 71
2019-04-02 12:00:00 18.5 2 Norte 5 Sur 0 -- -- 74
2019-04-02 11:00:00 18 3 Sur 5 Sudoeste 0 -- -- 77
2019-04-02 10:00:00 17.5 0 Calma 4 Norte 0 -- -- 84
2019-04-02 09:00:00 16.7 3 Norte 6 Noroeste 0 -- -- 88
2019-04-02 08:00:00 15.6 5 Norte 9 Norte 0 -- -- 90
2019-04-02 07:00:00 16 3 Norte 6 Noroeste 0 -- -- 89
2019-04-02 06:00:00 15.8 4 Norte 6 Norte 0 -- -- 89
2019-04-02 05:00:00 15.8 3 Norte 6 Norte 0 -- -- 90
2019-04-02 04:00:00 15.8 3 Norte 6 Norte 0 -- -- 90
2019-04-02 03:00:00 15.7 3 Norte 6 Norte 0 -- -- 90
2019-04-02 02:00:00 15.5 3 Norte 13 Norte 0.2 -- -- 90
2019-04-02 01:00:00 15.2 5 Norte 12 Norte 5.8 -- -- 91
2019-04-02 00:00:00 15.9 5 Norte 14 Norte 6.4 -- -- 90
2019-04-01 23:00:00 16.8 2 Norte 17 Sur 4.2 -- -- 86
2019-04-01 22:00:00 17.7 8 Sudeste 17 Sudeste 0 -- -- 79
2019-04-01 21:00:00 18.1 5 Sudeste 9 Sudeste 0 -- -- 75
2019-04-01 20:00:00 18.4 3 Sur 5 Sudeste 0 -- -- 71
2019-04-01 19:00:00 18.3 3 Norte 9 Nordeste 0 -- -- 72
2019-04-01 18:00:00 17.7 5 Norte 11 Norte 0 -- -- 76
2019-04-01 17:00:00 17.5 6 Noroeste 21 Sudeste 0.2 -- -- 79
2019-04-01 16:00:00 20 7 Sur 15 Sur 0 -- -- 63
2019-04-01 15:00:00 20.9 6 Sur 17 Sur 0 -- -- 62
2019-04-01 14:00:00 21.7 9 Sur 18 Sur 0 -- -- 61
2019-04-01 13:00:00 21.7 7 Sudeste 16 Sur 0 -- -- 58
2019-04-01 12:00:00 21.3 6 Sur 13 Sur 0 -- -- 55
2019-04-01 11:00:00 20.5 7 Sur 13 Sur 0 -- -- 60
2019-04-01 10:00:00 18.5 2 Sur 9 Sudoeste 0 -- -- 66
2019-04-01 09:00:00 16.6 4 Norte 11 Norte 0 -- -- 73
2019-04-01 08:00:00 15.3 4 Norte 8 Norte 0 -- -- 74
2019-04-01 07:00:00 15.2 3 Norte 6 Norte 0 -- -- 75
2019-04-01 06:00:00 15.7 3 Norte 6 Norte 0 -- -- 73
2019-04-01 05:00:00 16.2 0 Calma 9 Norte 0 -- -- 71
2019-04-01 04:00:00 17.3 2 Norte 18 Norte 0 -- -- 69
2019-04-01 03:00:00 17.5 2 Norte 18 Norte 0 -- -- 70
2019-04-01 02:00:00 17.6 4 Norte 13 Norte 0 -- -- 70
2019-04-01 01:00:00 17.5 7 Norte 17 Nordeste 0 -- -- 67
2019-04-01 00:00:00 17.8 9 Norte 26 Nordeste 0 -- -- 68
2019-03-31 23:00:00 18.3 6 Norte 23 Norte 0 -- -- 64
2019-03-31 22:00:00 18.4 9 Norte 23 Norte 0 -- -- 66
2019-03-31 21:00:00 18.8 6 Norte 15 Norte 0 -- -- 65
2019-03-31 20:00:00 19.4 6 Norte 16 Nordeste 0 -- -- 60
2019-03-31 19:00:00 19.6 5 Norte 21 Norte 0 -- -- 59
2019-03-31 18:00:00 20.2 11 Norte 21 Norte 0 -- -- 55
2019-03-31 17:00:00 19.9 4 Sur 14 Sudeste 0 -- -- 59
2019-03-31 16:00:00 20.8 5 Sur 17 Nordeste 0 -- -- 53
2019-03-31 15:00:00 20.4 5 Sur 13 Sur 0 -- -- 61
2019-03-31 14:00:00 19.3 6 Sudeste 16 Sudeste 0 -- -- 64
2019-03-31 13:00:00 20 6 Sur 18 Sur 0 -- -- 61
2019-03-31 12:00:00 19.5 7 Este 26 Sudeste 0 -- -- 63
2019-03-31 11:00:00 19.6 14 Sudeste 26 Sudeste 0 -- -- 62
2019-03-31 10:00:00 20.2 8 Sudeste 18 Sudeste 0 -- -- 57
2019-03-31 09:00:00 16.6 4 Norte 9 Nordeste 0 -- -- 67
2019-03-31 08:00:00 14.7 3 Norte 7 Norte 0 -- -- 71
2019-03-31 07:00:00 13.8 3 Norte 9 Norte 0 -- -- 72
2019-03-31 06:00:00 14.2 3 Norte 6 Norte 0 -- -- 71
2019-03-31 05:00:00 15.3 3 Norte 9 Norte 0 -- -- 68
2019-03-31 04:00:00 14.5 4 Norte 9 Norte 0 -- -- 71
2019-03-31 00:00:00 14.7 4 Norte 10 Norte 0 -- -- 59
2019-03-30 23:00:00 15.9 4 Norte 8 Norte 0 -- -- 58
2019-03-30 22:00:00 16.5 3 Norte 8 Norte 0 -- -- 59
2019-03-30 21:00:00 17 4 Norte 9 Noroeste 0 -- -- 61
2019-03-30 20:00:00 17.8 5 Norte 14 Norte 0 -- -- 60
2019-03-30 19:00:00 19 4 Nordeste 18 Nordeste 0 -- -- 55
2019-03-30 18:00:00 19.8 7 Nordeste 15 Norte 0 -- -- 53
2019-03-30 17:00:00 20 5 Norte 18 Norte 0 -- -- 52
2019-03-30 16:00:00 20.6 4 Oeste 14 Norte 0 -- -- 48
2019-03-30 15:00:00 21.9 8 Norte 27 Norte 0 -- -- 42
2019-03-30 14:00:00 22.6 11 Norte 31 Norte 0 -- -- 40
2019-03-30 13:00:00 21.9 12 Norte 24 Noroeste 0 -- -- 41
2019-03-30 12:00:00 20.8 14 Norte 32 Norte 0 -- -- 52
2019-03-30 11:00:00 20.8 6 Sudeste 13 Sudeste 0 -- -- 51
2019-03-30 10:00:00 19.9 7 Sur 13 Sur 0 -- -- 55
2019-03-30 09:00:00 18.7 4 Sur 9 Sudeste 0 -- -- 57
2019-03-30 08:00:00 15.6 3 Norte 9 Noroeste 0 -- -- 69
2019-03-30 07:00:00 15.6 3 Norte 18 Nordeste 0 -- -- 69
2019-03-30 06:00:00 15.6 7 Norte 13 Nordeste 0 -- -- 69
2019-03-30 05:00:00 14.5 5 Norte 9 Norte 0 -- -- 69
2019-03-30 04:00:00 14.2 4 Norte 9 Norte 0 -- -- 66
2019-03-30 03:00:00 14.4 5 Norte 9 Norte 0 -- -- 63
2019-03-30 02:00:00 15.1 5 Norte 8 Norte 0 -- -- 60
2019-03-30 01:00:00 15.8 3 Noroeste 11 Nordeste 0 -- -- 55
2019-03-30 00:00:00 15.8 4 Norte 9 Norte 0 -- -- 54
2019-03-29 23:00:00 16.1 4 Norte 9 Norte 0 -- -- 53
2019-03-29 22:00:00 17.6 2 Norte 12 Nordeste 0 -- -- 50
2019-03-29 21:00:00 18.1 2 Norte 15 Norte 0 -- -- 46
2019-03-29 20:00:00 18.1 6 Norte 19 Nordeste 0 -- -- 52
2019-03-29 19:00:00 18 8 Norte 17 Norte 0 -- -- 50
2019-03-29 18:00:00 18.8 7 Norte 17 Norte 0 -- -- 58
2019-03-29 17:00:00 19.5 6 Norte 17 Norte 0 -- -- 60
2019-03-29 16:00:00 20.2 8 Nordeste 15 Este 0 -- -- 59
2019-03-29 15:00:00 20.9 6 Sudeste 15 Sur 0 -- -- 62
2019-03-29 14:00:00 21.6 8 Sur 14 Sur 0 -- -- 57
2019-03-29 13:00:00 22 8 Sur 17 Sur 0 -- -- 59
2019-03-29 12:00:00 22 7 Sur 16 Sudeste 0 -- -- 58
2019-03-29 11:00:00 21.1 8 Sur 14 Sur 0 -- -- 61
2019-03-29 10:00:00 20.7 7 Sur 14 Sur 0 -- -- 62
2019-03-29 09:00:00 20.2 6 Sur 13 Sur 0 -- -- 64
2019-03-29 08:00:00 17.1 0 Calma 6 Norte 0 -- -- 75
2019-03-29 07:00:00 16 2 Norte 6 Norte 0 -- -- 79
2019-03-29 06:00:00 15.9 4 Norte 7 Norte 0 -- -- 78
2019-03-29 05:00:00 15.4 5 Norte 7 Norte 0 -- -- 79
2019-03-29 04:00:00 16.2 4 Norte 6 Norte 0 -- -- 79
2019-03-29 03:00:00 16.8 4 Norte 6 Norte 0 -- -- 77
2019-03-29 02:00:00 17.7 3 Norte 6 Norte 0 -- -- 73
2019-03-29 01:00:00 18.2 3 Sur 8 Sur 0 -- -- 71
2019-03-29 00:00:00 18.2 2 Sur 6 Sudeste 0 -- -- 71
2019-03-28 23:00:00 18.4 0 Calma 8 Sudeste 0 -- -- 71
2019-03-28 22:00:00 18.4 3 Sur 12 Sur 0 -- -- 70
2019-03-28 21:00:00 18.5 4 Sudeste 12 Sudeste 0 -- -- 69
2019-03-28 20:00:00 18.6 4 Sur 13 Sudeste 0 -- -- 69
2019-03-28 19:00:00 18.8 5 Sudeste 13 Sudeste 0 -- -- 68
2019-03-28 18:00:00 19.2 5 Sudeste 13 Sur 0 -- -- 65
2019-03-28 17:00:00 20 6 Sur 13 Sur 0 -- -- 64
2019-03-28 16:00:00 20.6 5 Sur 14 Sur 0 -- -- 60
2019-03-28 15:00:00 21.7 9 Sur 18 Sur 0 -- -- 57
2019-03-28 14:00:00 21.7 9 Sur 17 Sudeste 0 -- -- 56
2019-03-28 13:00:00 21.7 8 Sudeste 18 Sudeste 0 -- -- 56
2019-03-28 12:00:00 21.6 8 Sur 17 Sudeste 0 -- -- 56
2019-03-28 11:00:00 20.9 9 Sur 17 Sudeste 0 -- -- 59
2019-03-28 10:00:00 20.3 6 Sur 14 Sur 0 -- -- 61
2019-03-28 09:00:00 18.4 0 Calma 9 Norte 0 -- -- 64
2019-03-28 08:00:00 14.6 5 Norte 8 Norte 0 -- -- 81
2019-03-28 07:00:00 14 5 Norte 8 Noroeste 0 -- -- 82
2019-03-28 06:00:00 14.3 3 Norte 7 Norte 0 -- -- 81
2019-03-28 05:00:00 14.4 4 Norte 8 Norte 0 -- -- 81
2019-03-28 04:00:00 15 4 Norte 7 Norte 0 -- -- 80
2019-03-28 03:00:00 15.2 4 Norte 7 Norte 0 -- -- 79
2019-03-28 02:00:00 15.9 3 Norte 6 Norte 0 -- -- 77
2019-03-28 01:00:00 16.5 2 Norte 6 Nordeste 0 -- -- 76
2019-03-28 00:00:00 17 0 Calma 6 Nordeste 0 -- -- 73
2019-03-27 23:00:00 17.8 3 Norte 10 Norte 0 -- -- 70
2019-03-27 22:00:00 18.2 5 Norte 16 Norte 0 -- -- 69
2019-03-27 21:00:00 18.3 5 Norte 12 Nordeste 0 -- -- 66
2019-03-27 20:00:00 18.7 8 Norte 15 Norte 0 -- -- 65
2019-03-27 19:00:00 19.3 6 Norte 24 Norte 0 -- -- 62
2019-03-27 18:00:00 19.9 10 Norte 25 Norte 0 -- -- 60
2019-03-27 17:00:00 20.7 7 Norte 22 Nordeste 0 -- -- 57
2019-03-27 16:00:00 20.8 7 Norte 17 Norte 0 -- -- 55
2019-03-27 15:00:00 21.6 6 Norte 24 Norte 0 -- -- 53
2019-03-27 14:00:00 21.5 7 Norte 18 Noroeste 0 -- -- 56
2019-03-27 13:00:00 21.6 5 Norte 23 Nordeste 0 -- -- 54
2019-03-27 12:00:00 21.3 5 Norte 27 Noroeste 0 -- -- 56
2019-03-27 11:00:00 21.5 14 Norte 27 Norte 0 -- -- 56
2019-03-27 10:00:00 20.8 12 Norte 24 Noroeste 0 -- -- 58
2019-03-27 09:00:00 20 6 Norte 19 Norte 0 -- -- 61
2019-03-27 08:00:00 18.6 7 Norte 19 Nordeste 0 -- -- 67
2019-03-27 07:00:00 18.4 9 Norte 18 Nordeste 0 -- -- 68
2019-03-27 06:00:00 18.5 6 Norte 15 Norte 0 -- -- 68
2019-03-27 05:00:00 18.6 6 Norte 19 Norte 0 -- -- 67
2019-03-27 04:00:00 18.6 5 Norte 18 Norte 0 -- -- 68
2019-03-27 03:00:00 18.6 5 Norte 17 Norte 0 -- -- 69
2019-03-27 02:00:00 18.5 2 Nordeste 13 Norte 0 -- -- 67
2019-03-27 01:00:00 18.8 5 Norte 22 Norte 0 -- -- 67
2019-03-27 00:00:00 18.9 8 Norte 23 Norte 0 -- -- 68
2019-03-26 23:00:00 18.8 6 Norte 19 Nordeste 0 -- -- 65
2019-03-26 22:00:00 18.8 9 Norte 22 Noroeste 0 -- -- 64
2019-03-26 21:00:00 18.4 0 Calma 10 Norte 0 -- -- 66
2019-03-26 20:00:00 18.9 4 Norte 18 Norte 0 -- -- 63
2019-03-26 19:00:00 19.3 3 Noroeste 15 Sudeste 0 -- -- 64
2019-03-26 18:00:00 19.5 8 Sudeste 17 Sudeste 0 -- -- 64
2019-03-26 17:00:00 20.3 5 Sur 12 Sudeste 0 -- -- 62
2019-03-26 16:00:00 20.3 7 Sur 15 Sur 0 -- -- 60
2019-03-26 15:00:00 21.4 7 Sur 14 Sudoeste 0 -- -- 57
2019-03-26 14:00:00 21.6 6 Sudeste 15 Sur 0 -- -- 59
2019-03-26 13:00:00 20.9 9 Sur 16 Sur 0 -- -- 60
2019-03-26 12:00:00 20.8 10 Sur 18 Sur 0 -- -- 59
2019-03-26 11:00:00 20.3 10 Sudeste 22 Sudeste 0 -- -- 64
2019-03-26 10:00:00 20 8 Sur 17 Sur 0 -- -- 60
2019-03-26 09:00:00 18 0 Calma 5 Sur 0 -- -- 68
2019-03-26 08:00:00 14.8 4 Norte 9 Norte 0 -- -- 81
2019-03-26 07:00:00 13.5 3 Norte 8 Norte 0 -- -- 82
2019-03-26 06:00:00 13.5 5 Norte 10 Norte 0 -- -- 81
2019-03-26 05:00:00 13.5 3 Noroeste 9 Norte 0 -- -- 80
2019-03-26 04:00:00 13.4 5 Norte 9 Norte 0 -- -- 81
2019-03-26 03:00:00 14 4 Norte 9 Norte 0 -- -- 79
2019-03-26 02:00:00 14.3 5 Norte 8 Norte 0 -- -- 80
2019-03-26 01:00:00 14.8 4 Norte 8 Norte 0 -- -- 80
2019-03-26 00:00:00 15.3 4 Norte 9 Norte 0 -- -- 80
2019-03-25 23:00:00 15.8 3 Norte 6 Norte 0 -- -- 79
2019-03-25 22:00:00 16.1 0 Calma 9 Norte 0 -- -- 78
2019-03-25 21:00:00 15.9 4 Norte 6 Norte 0 -- -- 79
2019-03-25 20:00:00 17.1 2 Sur 10 Sudeste 0 -- -- 73
2019-03-25 19:00:00 17.5 4 Sur 12 Sur 0 -- -- 71
2019-03-25 18:00:00 18 4 Sudeste 17 Sudeste 0 -- -- 68
2019-03-25 17:00:00 18.7 4 Sudeste 15 Sur 0 -- -- 64
2019-03-25 16:00:00 19 5 Sudeste 15 Sur 0 -- -- 64
2019-03-25 15:00:00 19.2 8 Sudeste 18 Sudeste 0 -- -- 62
2019-03-25 14:00:00 18.8 7 Sur 13 Sudoeste 0.2 -- -- 69
2019-03-25 13:00:00 15.9 2 Norte 6 Norte 2 -- -- 79
2019-03-25 12:00:00 16.3 5 Sur 30 Nordeste 1.4 -- -- 77
2019-03-25 11:00:00 17.8 4 Nordeste 26 Nordeste 0 -- -- 69
2019-03-25 10:00:00 18.3 4 Este 15 Sudeste 0 -- -- 70
2019-03-25 09:00:00 18 3 Este 8 Noroeste 0 -- -- 70
2019-03-25 08:00:00 17.2 4 Norte 8 Nordeste 0 -- -- 73
2019-03-25 07:00:00 16.7 3 Norte 8 Norte 0 -- -- 74
2019-03-25 06:00:00 16.5 4 Norte 8 Norte 0 -- -- 74
2019-03-25 05:00:00 17.2 0 Calma 8 Noroeste 0 -- -- 72
2019-03-25 04:00:00 17.5 3 Este 13 Sur 0 -- -- 74
2019-03-25 03:00:00 17.8 5 Sur 11 Sudeste 0 -- -- 71
2019-03-25 02:00:00 17.9 3 Sur 10 Sur -- -- -- 70
2019-03-25 01:00:00 17.9 4 Sur 12 Sur 0 -- -- 69
2019-03-25 00:00:00 18 4 Sur 10 Sur 0 -- -- 70
2019-03-24 23:00:00 18 4 Sur 8 Sur 0 -- -- 70
2019-03-24 22:00:00 18.1 6 Sur 12 Sur 0 -- -- 69
2019-03-24 21:00:00 18.2 5 Sur 13 Sudeste 0 -- -- 68
2019-03-24 20:00:00 18.2 6 Sudeste 17 Sudeste 0 -- -- 68
2019-03-24 19:00:00 18.5 6 Sudeste 15 Sudeste 0 -- -- 67
2019-03-24 18:00:00 19.2 7 Sudeste 19 Sudeste 0 -- -- 59
2019-03-24 17:00:00 19.7 8 Norte 23 Norte 0 -- -- 49
2019-03-24 16:00:00 20.3 10 Norte 22 Norte 0 -- -- 52
2019-03-24 15:00:00 21.2 6 Sur 21 Sudeste 0 -- -- 52
2019-03-24 14:00:00 21.1 5 Norte 23 Sur 0 -- -- 52
2019-03-24 13:00:00 21.4 9 Sudeste 21 Sudeste 0 -- -- 52
2019-03-24 12:00:00 21.3 7 Sudeste 16 Sudeste 0 -- -- 51
2019-03-24 11:00:00 19.7 7 Sudeste 16 Norte 0 -- -- 52
2019-03-24 10:00:00 18.8 3 Norte 12 Sur 0 -- -- 57
2019-03-24 09:00:00 18 3 Sur 8 Sudeste 0 -- -- 60
2019-03-24 08:00:00 17.2 0 Calma 14 Norte 0 -- -- 63
2019-03-24 07:00:00 16.5 3 Norte 17 Norte 0 -- -- 63
2019-03-24 06:00:00 16.4 7 Norte 18 Nordeste 0 -- -- 63
2019-03-24 05:00:00 16.3 2 Norte 11 Norte 0 -- -- 64
2019-03-24 04:00:00 16.8 3 Norte 15 Este 0 -- -- 64
2019-03-24 03:00:00 17.2 5 Norte 15 Norte 0 -- -- 65
2019-03-24 02:00:00 17.2 5 Norte 19 Norte 0 -- -- 65
2019-03-24 01:00:00 17.2 4 Norte 17 Norte 0 -- -- 67
2019-03-24 00:00:00 17.4 8 Norte 31 Norte 0 -- -- 67
2019-03-23 23:00:00 17.6 10 Norte 39 Norte 0 -- -- 68
2019-03-23 22:00:00 17.7 11 Norte 28 Norte 0 -- -- 66
2019-03-23 21:00:00 17.9 10 Norte 27 Nordeste 0 -- -- 66
2019-03-23 20:00:00 18 10 Norte 23 Norte 0 -- -- 64
2019-03-23 19:00:00 18.4 5 Norte 22 Norte 0 -- -- 57
2019-03-23 18:00:00 19.1 7 Norte 31 Noroeste 0 -- -- 57
2019-03-23 17:00:00 20.2 13 Norte 31 Noroeste 0 -- -- 54
2019-03-23 16:00:00 21.3 10 Norte 32 Norte 0 -- -- 50
2019-03-23 15:00:00 21.1 14 Norte 32 Noroeste 0 -- -- 50
2019-03-23 14:00:00 21 13 Norte 39 Norte 0 -- -- 49
2019-03-23 13:00:00 20.9 14 Norte 39 Norte 0 -- -- 51
2019-03-23 12:00:00 20.6 13 Norte 36 Noroeste 0 -- -- 52
2019-03-23 11:00:00 20.2 12 Norte 30 Norte 0 -- -- 53
2019-03-23 10:00:00 19.6 12 Norte 33 Norte 0 -- -- 50
2019-03-23 09:00:00 18.1 6 Norte 23 Norte 0 -- -- 55
2019-03-23 08:00:00 17.2 10 Nordeste 41 Norte 0 -- -- 58
2019-03-23 07:00:00 17 10 Nordeste 35 Norte 0 -- -- 61
2019-03-23 06:00:00 17.1 17 Norte 41 Norte 0 -- -- 61
2019-03-23 05:00:00 17 9 Norte 28 Nordeste 0 -- -- 65
2019-03-23 04:00:00 17.1 7 Norte 22 Nordeste 0 -- -- 65
2019-03-23 03:00:00 17.3 8 Nordeste 25 Norte 0 -- -- 61
2019-03-23 02:00:00 17.5 8 Norte 21 Norte 0 -- -- 62
2019-03-23 01:00:00 17.6 8 Norte 24 Norte 0 -- -- 66
2019-03-23 00:00:00 17.7 6 Norte 23 Norte 0 -- -- 66
2019-03-22 23:00:00 17.9 9 Norte 29 Noroeste 0 -- -- 64
2019-03-22 22:00:00 17.9 9 Norte 26 Norte 0 -- -- 66
2019-03-22 21:00:00 18 9 Norte 27 Norte 0 -- -- 64
2019-03-22 20:00:00 18.1 10 Norte 29 Norte 0 -- -- 63
2019-03-22 19:00:00 18.3 6 Norte 33 Norte 0 -- -- 61
2019-03-22 18:00:00 18.8 7 Norte 41 Nordeste 0 -- -- 60
2019-03-22 17:00:00 20.1 13 Norte 36 Norte 0 -- -- 55
2019-03-22 16:00:00 20.8 14 Norte 37 Nordeste 0 -- -- 53
2019-03-22 15:00:00 20.8 17 Norte 38 Norte 0 -- -- 50
2019-03-22 14:00:00 20.9 8 Norte 23 Nordeste 0 -- -- 50
2019-03-22 13:00:00 19.8 9 Norte 30 Noroeste 0 -- -- 52
2019-03-22 12:00:00 18.2 9 Norte 30 Norte 0 -- -- 59
2019-03-22 11:00:00 18.2 11 Norte 26 Norte 0 -- -- 55
2019-03-22 10:00:00 17.7 8 Norte 31 Norte 0 -- -- 57
2019-03-22 09:00:00 17.4 7 Norte 30 Norte 0 -- -- 56
2019-03-22 08:00:00 17.2 8 Norte 35 Nordeste 0 -- -- 61
2019-03-22 07:00:00 17 8 Norte 30 Norte 0 -- -- 58
2019-03-22 06:00:00 17 11 Norte 24 Norte 0 -- -- 60
2019-03-22 05:00:00 17.1 9 Norte 27 Noroeste 0 -- -- 59
2019-03-22 04:00:00 17.3 9 Norte 26 Nordeste 0 -- -- 62
2019-03-22 03:00:00 17.4 8 Norte 22 Noroeste 0 -- -- 62
2019-03-22 02:00:00 17.4 8 Norte 29 Norte 0 -- -- 61
2019-03-22 01:00:00 17.7 9 Norte 21 Norte 0 -- -- 61
2019-03-22 00:00:00 17.5 6 Norte 21 Norte 0 -- -- 60
2019-03-21 23:00:00 17.9 6 Norte 22 Norte 0 -- -- 62
2019-03-21 22:00:00 18 9 Norte 24 Norte 0 -- -- 61
2019-03-21 21:00:00 18.1 9 Norte 20 Norte 0 -- -- 62
2019-03-21 20:00:00 18.2 6 Norte 23 Norte 0 -- -- 61
2019-03-21 19:00:00 18.7 7 Norte 20 Norte 0 -- -- 60
2019-03-21 18:00:00 19.4 5 Norte 24 Norte 0 -- -- 59
2019-03-21 17:00:00 21.1 8 Nordeste 22 Norte 0 -- -- 52
2019-03-21 16:00:00 21.8 8 Nordeste 28 Sur 0 -- -- 49
2019-03-21 15:00:00 22.4 6 Norte 35 Sur 0 -- -- 49
2019-03-21 14:00:00 22 12 Sur 40 Sudeste 0 -- -- 48
2019-03-21 13:00:00 21.7 9 Sur 27 Noroeste 0 -- -- 55
2019-03-21 12:00:00 20.3 6 Sur 32 Sudeste 0 -- -- 57
2019-03-21 11:00:00 21.3 10 Sudeste 22 Sudeste 0 -- -- 55
2019-03-21 10:00:00 20.2 10 Sur 22 Sur 0 -- -- 57
2019-03-21 09:00:00 19.2 3 Este 17 Norte 0 -- -- 60
2019-03-21 08:00:00 16.5 0 Calma 11 Noroeste 0 -- -- 71
2019-03-21 07:00:00 16.6 3 Norte 8 Nordeste 0 -- -- 70
2019-03-21 06:00:00 16.6 3 Norte 6 Norte 0 -- -- 71
2019-03-21 05:00:00 17 4 Norte 12 Sur 0 -- -- 70
2019-03-21 04:00:00 17.1 0 Calma 13 Norte 0 -- -- 70
2019-03-21 03:00:00 17.1 3 Norte 13 Nordeste 0 -- -- 69
2019-03-21 02:00:00 17.5 4 Nordeste 19 Norte 0 -- -- 66
2019-03-21 01:00:00 17.8 6 Norte 19 Norte 0 -- -- 65
2019-03-21 00:00:00 18.2 6 Norte 15 Noroeste 0 -- -- 65
2019-03-20 23:00:00 18.2 5 Norte 17 Norte 0 -- -- 65
2019-03-20 22:00:00 18.3 6 Norte 18 Norte 0 -- -- 64
2019-03-20 21:00:00 18.1 6 Norte 23 Norte 0 -- -- 64
2019-03-20 20:00:00 18.2 5 Nordeste 25 Norte 0 -- -- 62
2019-03-20 19:00:00 18.7 8 Norte 22 Norte 0 -- -- 62
2019-03-20 18:00:00 19.5 13 Norte 26 Nordeste 0 -- -- 59
2019-03-20 17:00:00 21.4 11 Norte 24 Norte 0 -- -- 52
2019-03-20 16:00:00 22.3 9 Nordeste 21 Nordeste 0 -- -- 50
2019-03-20 15:00:00 22.4 6 Norte 25 Sudeste 0 -- -- 51
2019-03-20 14:00:00 22.1 9 Norte 20 Noroeste 0 -- -- 50
2019-03-20 13:00:00 20.8 8 Norte 20 Norte 0 -- -- 55
2019-03-20 12:00:00 21 8 Nordeste 22 Este 0 -- -- 56
2019-03-20 11:00:00 21.3 5 Nordeste 24 Nordeste 0 -- -- 51
2019-03-20 10:00:00 20.1 6 Norte 31 Norte 0 -- -- 56
2019-03-20 09:00:00 18.8 9 Norte 20 Noroeste 0 -- -- 59
2019-03-20 08:00:00 16.6 6 Norte 21 Norte 0 -- -- 64
2019-03-20 07:00:00 16.3 4 Norte 12 Noroeste 0 -- -- 67
2019-03-20 06:00:00 16.8 5 Norte 17 Nordeste 0 -- -- 64
2019-03-20 05:00:00 16.9 4 Norte 17 Norte 0 -- -- 62
2019-03-20 04:00:00 17 0 Calma 16 Norte 0 -- -- 61
2019-03-20 03:00:00 17.6 4 Norte 20 Norte 0 -- -- 62
2019-03-20 02:00:00 17.1 5 Norte 15 Noroeste 0 -- -- 62
2019-03-20 01:00:00 17.4 5 Norte 20 Noroeste 0 -- -- 59
2019-03-20 00:00:00 17.5 5 Norte 20 Nordeste 0 -- -- 59
2019-03-19 23:00:00 17.5 5 Norte 16 Norte 0 -- -- 59
2019-03-19 22:00:00 17.2 4 Norte 19 Nordeste 0 -- -- 59
2019-03-19 21:00:00 17.7 8 Norte 20 Norte 0 -- -- 63
2019-03-19 20:00:00 17.6 9 Norte 22 Norte 0 -- -- 62
2019-03-19 19:00:00 17.8 6 Nordeste 23 Nordeste 0 -- -- 58
2019-03-19 18:00:00 18.5 9 Nordeste 29 Nordeste 0 -- -- 57
2019-03-19 17:00:00 19.8 11 Norte 33 Norte 0 -- -- 54
2019-03-19 16:00:00 20.3 13 Norte 31 Nordeste 0 -- -- 51
2019-03-19 15:00:00 20.5 13 Norte 26 Norte 0 -- -- 48
2019-03-19 14:00:00 19.2 9 Norte 27 Norte 0 -- -- 56
2019-03-19 13:00:00 19.1 12 Norte 31 Nordeste 0 -- -- 57
2019-03-19 12:00:00 19.9 9 Norte 27 Norte 0 -- -- 51
2019-03-19 11:00:00 19.1 5 Norte 28 Norte 0 -- -- 53
2019-03-19 10:00:00 18.6 10 Norte 22 Norte 0 -- -- 54
2019-03-19 09:00:00 18.3 6 Norte 20 Norte 0 -- -- 55
2019-03-19 08:00:00 17.1 3 Norte 19 Norte 0 -- -- 60
2019-03-19 07:00:00 17.3 7 Norte 21 Norte 0 -- -- 60
2019-03-19 06:00:00 17.5 6 Norte 27 Norte 0 -- -- 64
2019-03-19 05:00:00 17.7 8 Norte 19 Norte 0 -- -- 63
2019-03-19 04:00:00 17.7 6 Norte 15 Norte 0 -- -- 65
2019-03-19 03:00:00 17.8 4 Norte 20 Nordeste 0 -- -- 63
2019-03-19 02:00:00 18.1 7 Norte 17 Noroeste 0 -- -- 63
2019-03-19 01:00:00 18.2 6 Norte 23 Noroeste 0 -- -- 57
2019-03-19 00:00:00 18.3 5 Norte 17 Norte 0 -- -- 60